sensor_id;sensor_type;location;lat;lon;timestamp;temperature;humidity
64951;DHT22;51482;47.014;7.652;2023-05-20T00:01:06;13.20;99.90
64951;DHT22;51482;47.014;7.652;2023-05-20T00:03:31;13.20;99.90
64951;DHT22;51482;47.014;7.652;2023-05-20T00:05:57;13.30;99.90
64951;DHT22;51482;47.014;7.652;2023-05-20T00:08:22;12.70;99.90
64951;DHT22;51482;47.014;7.652;2023-05-20T00:10:48;12.60;99.90
64951;DHT22;51482;47.014;7.652;2023-05-20T00:13:13;13.10;99.90
64951;DHT22;51482;47.014;7.652;2023-05-20T00:15:39;12.60;99.90
64951;DHT22;51482;47.014;7.652;2023-05-20T00:18:05;12.60;99.90
64951;DHT22;51482;47.014;7.652;2023-05-20T00:20:31;13.00;99.90
64951;DHT22;51482;47.014;7.652;2023-05-20T00:22:57;13.00;99.90
64951;DHT22;51482;47.014;7.652;2023-05-20T00:25:22;13.10;99.90
64951;DHT22;51482;47.014;7.652;2023-05-20T00:27:48;12.50;99.90
64951;DHT22;51482;47.014;7.652;2023-05-20T00:30:13;12.60;99.90
64951;DHT22;51482;47.014;7.652;2023-05-20T00:32:39;12.60;99.90
64951;DHT22;51482;47.014;7.652;2023-05-20T00:35:05;12.60;99.90
64951;DHT22;51482;47.014;7.652;2023-05-20T00:37:31;12.60;99.90
64951;DHT22;51482;47.014;7.652;2023-05-20T00:39:56;13.30;99.90
64951;DHT22;51482;47.014;7.652;2023-05-20T00:42:23;13.20;99.90
64951;DHT22;51482;47.014;7.652;2023-05-20T00:44:49;12.60;99.90
64951;DHT22;51482;47.014;7.652;2023-05-20T00:47:17;12.60;99.90
64951;DHT22;51482;47.014;7.652;2023-05-20T00:49:47;12.60;99.90
64951;DHT22;51482;47.014;7.652;2023-05-20T00:52:13;13.30;99.90
64951;DHT22;51482;47.014;7.652;2023-05-20T00:54:42;13.30;99.90
64951;DHT22;51482;47.014;7.652;2023-05-20T00:57:08;13.20;99.90
64951;DHT22;51482;47.014;7.652;2023-05-20T00:59:37;13.20;99.90
64951;DHT22;51482;47.014;7.652;2023-05-20T01:02:04;12.70;99.90
64951;DHT22;51482;47.014;7.652;2023-05-20T01:04:30;12.80;99.90
64951;DHT22;51482;47.014;7.652;2023-05-20T01:06:56;13.00;99.90
64951;DHT22;51482;47.014;7.652;2023-05-20T01:09:26;12.70;99.90
64951;DHT22;51482;47.014;7.652;2023-05-20T01:12:09;12.70;99.90
64951;DHT22;51482;47.014;7.652;2023-05-20T01:15:14;12.70;99.90
64951;DHT22;51482;47.014;7.652;2023-05-20T01:17:32;12.60;99.90
64951;DHT22;51482;47.014;7.652;2023-05-20T01:19:58;12.50;99.90
64951;DHT22;51482;47.014;7.652;2023-05-20T01:22:28;12.50;99.90
64951;DHT22;51482;47.014;7.652;2023-05-20T01:24:54;13.00;99.90
64951;DHT22;51482;47.014;7.652;2023-05-20T01:27:22;12.90;99.90
64951;DHT22;51482;47.014;7.652;2023-05-20T01:29:49;12.50;99.90
64951;DHT22;51482;47.014;7.652;2023-05-20T01:32:30;13.20;99.90
64951;DHT22;51482;47.014;7.652;2023-05-20T01:34:57;12.50;99.90
64951;DHT22;51482;47.014;7.652;2023-05-20T01:37:24;12.00;99.90
64951;DHT22;51482;47.014;7.652;2023-05-20T01:39:52;12.10;99.90
64951;DHT22;51482;47.014;7.652;2023-05-20T01:42:19;13.00;99.90
64951;DHT22;51482;47.014;7.652;2023-05-20T01:44:45;12.60;99.90
64951;DHT22;51482;47.014;7.652;2023-05-20T01:47:11;11.90;99.90
64951;DHT22;51482;47.014;7.652;2023-05-20T01:49:37;12.50;99.90
64951;DHT22;51482;47.014;7.652;2023-05-20T01:52:03;12.90;99.90
64951;DHT22;51482;47.014;7.652;2023-05-20T01:54:29;12.40;99.90
64951;DHT22;51482;47.014;7.652;2023-05-20T01:56:54;12.40;99.90
64951;DHT22;51482;47.014;7.652;2023-05-20T01:59:20;12.40;99.90
64951;DHT22;51482;47.014;7.652;2023-05-20T02:01:46;12.40;99.90
64951;DHT22;51482;47.014;7.652;2023-05-20T02:04:11;12.40;99.90
64951;DHT22;51482;47.014;7.652;2023-05-20T02:06:37;12.30;99.90
64951;DHT22;51482;47.014;7.652;2023-05-20T02:09:02;12.30;99.90
64951;DHT22;51482;47.014;7.652;2023-05-20T02:11:28;12.30;99.90
64951;DHT22;51482;47.014;7.652;2023-05-20T02:13:53;12.30;99.90
64951;DHT22;51482;47.014;7.652;2023-05-20T02:16:19;12.30;99.90
64951;DHT22;51482;47.014;7.652;2023-05-20T02:18:45;12.30;99.90
64951;DHT22;51482;47.014;7.652;2023-05-20T02:21:10;11.90;99.90
64951;DHT22;51482;47.014;7.652;2023-05-20T02:23:36;12.30;99.90
64951;DHT22;51482;47.014;7.652;2023-05-20T02:26:02;12.30;99.90
64951;DHT22;51482;47.014;7.652;2023-05-20T02:28:28;12.30;99.90
64951;DHT22;51482;47.014;7.652;2023-05-20T02:30:53;12.30;99.90
64951;DHT22;51482;47.014;7.652;2023-05-20T02:33:19;12.70;99.90
64951;DHT22;51482;47.014;7.652;2023-05-20T02:35:44;12.10;99.90
64951;DHT22;51482;47.014;7.652;2023-05-20T02:38:14;12.00;99.90
64951;DHT22;51482;47.014;7.652;2023-05-20T02:40:43;12.40;99.90
64951;DHT22;51482;47.014;7.652;2023-05-20T02:43:08;11.90;99.90
64951;DHT22;51482;47.014;7.652;2023-05-20T02:45:34;11.90;99.90
64951;DHT22;51482;47.014;7.652;2023-05-20T02:48:00;11.70;99.90
64951;DHT22;51482;47.014;7.652;2023-05-20T02:50:26;11.80;99.90
64951;DHT22;51482;47.014;7.652;2023-05-20T02:52:51;11.80;99.90
64951;DHT22;51482;47.014;7.652;2023-05-20T02:55:17;11.80;99.90
64951;DHT22;51482;47.014;7.652;2023-05-20T02:57:43;11.80;99.90
64951;DHT22;51482;47.014;7.652;2023-05-20T03:00:08;11.80;99.90
64951;DHT22;51482;47.014;7.652;2023-05-20T03:02:37;11.80;99.90
64951;DHT22;51482;47.014;7.652;2023-05-20T03:05:03;11.80;99.90
64951;DHT22;51482;47.014;7.652;2023-05-20T03:07:29;11.70;99.90
64951;DHT22;51482;47.014;7.652;2023-05-20T03:09:56;11.00;99.90
64951;DHT22;51482;47.014;7.652;2023-05-20T03:12:23;11.70;99.90
64951;DHT22;51482;47.014;7.652;2023-05-20T03:14:50;11.70;99.90
64951;DHT22;51482;47.014;7.652;2023-05-20T03:17:20;12.30;99.90
64951;DHT22;51482;47.014;7.652;2023-05-20T03:19:45;11.70;99.90
64951;DHT22;51482;47.014;7.652;2023-05-20T03:22:11;12.40;99.90
64951;DHT22;51482;47.014;7.652;2023-05-20T03:24:36;11.70;99.90
64951;DHT22;51482;47.014;7.652;2023-05-20T03:27:02;11.70;99.90
64951;DHT22;51482;47.014;7.652;2023-05-20T03:29:28;11.70;99.90
64951;DHT22;51482;47.014;7.652;2023-05-20T03:31:53;11.80;99.90
64951;DHT22;51482;47.014;7.652;2023-05-20T03:34:19;11.80;99.90
64951;DHT22;51482;47.014;7.652;2023-05-20T03:36:45;11.90;99.90
64951;DHT22;51482;47.014;7.652;2023-05-20T03:39:10;11.90;99.90
64951;DHT22;51482;47.014;7.652;2023-05-20T03:41:36;11.90;99.90
64951;DHT22;51482;47.014;7.652;2023-05-20T03:44:02;12.00;99.90
64951;DHT22;51482;47.014;7.652;2023-05-20T03:46:27;12.10;99.90
64951;DHT22;51482;47.014;7.652;2023-05-20T03:48:55;12.00;99.90
64951;DHT22;51482;47.014;7.652;2023-05-20T03:51:20;12.00;99.90
64951;DHT22;51482;47.014;7.652;2023-05-20T03:53:46;12.60;99.90
64951;DHT22;51482;47.014;7.652;2023-05-20T03:56:11;12.40;99.90
64951;DHT22;51482;47.014;7.652;2023-05-20T03:58:37;12.00;99.90
64951;DHT22;51482;47.014;7.652;2023-05-20T04:01:03;12.70;99.90
64951;DHT22;51482;47.014;7.652;2023-05-20T04:03:28;12.00;99.90
64951;DHT22;51482;47.014;7.652;2023-05-20T04:05:54;12.00;99.90
64951;DHT22;51482;47.014;7.652;2023-05-20T04:08:20;12.00;99.90
64951;DHT22;51482;47.014;7.652;2023-05-20T04:10:46;12.50;99.90
64951;DHT22;51482;47.014;7.652;2023-05-20T04:13:11;12.00;99.90
64951;DHT22;51482;47.014;7.652;2023-05-20T04:15:37;12.00;99.90
64951;DHT22;51482;47.014;7.652;2023-05-20T04:18:03;12.10;99.90
64951;DHT22;51482;47.014;7.652;2023-05-20T04:20:30;12.00;99.90
64951;DHT22;51482;47.014;7.652;2023-05-20T04:22:56;11.80;99.90
64951;DHT22;51482;47.014;7.652;2023-05-20T04:25:22;12.50;99.90
64951;DHT22;51482;47.014;7.652;2023-05-20T04:27:48;12.10;99.90
64951;DHT22;51482;47.014;7.652;2023-05-20T04:30:14;12.60;99.90
64951;DHT22;51482;47.014;7.652;2023-05-20T04:32:42;12.50;99.90
64951;DHT22;51482;47.014;7.652;2023-05-20T04:35:08;12.50;99.90
64951;DHT22;51482;47.014;7.652;2023-05-20T04:37:36;12.20;99.90
64951;DHT22;51482;47.014;7.652;2023-05-20T04:40:02;12.20;99.90
64951;DHT22;51482;47.014;7.652;2023-05-20T04:42:31;12.10;99.90
64951;DHT22;51482;47.014;7.652;2023-05-20T04:44:58;12.50;99.90
64951;DHT22;51482;47.014;7.652;2023-05-20T04:47:26;12.20;99.90
64951;DHT22;51482;47.014;7.652;2023-05-20T04:49:52;12.30;99.90
64951;DHT22;51482;47.014;7.652;2023-05-20T04:52:24;12.30;99.90
64951;DHT22;51482;47.014;7.652;2023-05-20T04:54:51;12.40;99.90
64951;DHT22;51482;47.014;7.652;2023-05-20T04:57:17;12.70;99.90
64951;DHT22;51482;47.014;7.652;2023-05-20T04:59:48;12.40;99.90
64951;DHT22;51482;47.014;7.652;2023-05-20T05:02:13;12.50;99.90
64951;DHT22;51482;47.014;7.652;2023-05-20T05:04:39;13.10;99.90
64951;DHT22;51482;47.014;7.652;2023-05-20T05:07:05;12.40;99.90
64951;DHT22;51482;47.014;7.652;2023-05-20T05:09:30;12.50;99.90
64951;DHT22;51482;47.014;7.652;2023-05-20T05:11:56;12.60;99.90
64951;DHT22;51482;47.014;7.652;2023-05-20T05:14:22;12.50;99.90
64951;DHT22;51482;47.014;7.652;2023-05-20T05:16:48;12.50;99.90
64951;DHT22;51482;47.014;7.652;2023-05-20T05:19:14;12.50;99.90
64951;DHT22;51482;47.014;7.652;2023-05-20T05:21:39;12.50;99.90
64951;DHT22;51482;47.014;7.652;2023-05-20T05:24:05;12.50;99.90
64951;DHT22;51482;47.014;7.652;2023-05-20T05:26:31;12.50;99.90
64951;DHT22;51482;47.014;7.652;2023-05-20T05:28:56;12.60;99.90
64951;DHT22;51482;47.014;7.652;2023-05-20T05:31:22;12.40;99.90
64951;DHT22;51482;47.014;7.652;2023-05-20T05:33:47;12.40;99.90
64951;DHT22;51482;47.014;7.652;2023-05-20T05:36:14;12.40;99.90
64951;DHT22;51482;47.014;7.652;2023-05-20T05:38:39;12.50;99.90
64951;DHT22;51482;47.014;7.652;2023-05-20T05:41:05;12.50;99.90
64951;DHT22;51482;47.014;7.652;2023-05-20T05:43:31;12.80;99.90
64951;DHT22;51482;47.014;7.652;2023-05-20T05:45:56;12.50;99.90
64951;DHT22;51482;47.014;7.652;2023-05-20T05:48:22;12.50;99.90
64951;DHT22;51482;47.014;7.652;2023-05-20T05:50:47;12.50;99.90
64951;DHT22;51482;47.014;7.652;2023-05-20T05:53:13;12.50;99.90
64951;DHT22;51482;47.014;7.652;2023-05-20T05:55:38;12.50;99.90
64951;DHT22;51482;47.014;7.652;2023-05-20T05:58:04;12.60;99.90
64951;DHT22;51482;47.014;7.652;2023-05-20T06:00:29;12.60;99.90
64951;DHT22;51482;47.014;7.652;2023-05-20T06:02:55;12.20;99.90
64951;DHT22;51482;47.014;7.652;2023-05-20T06:05:20;12.60;99.90
64951;DHT22;51482;47.014;7.652;2023-05-20T06:07:46;12.70;99.90
64951;DHT22;51482;47.014;7.652;2023-05-20T06:10:12;13.10;99.90
64951;DHT22;51482;47.014;7.652;2023-05-20T06:12:37;12.70;99.90
64951;DHT22;51482;47.014;7.652;2023-05-20T06:15:03;12.70;99.90
64951;DHT22;51482;47.014;7.652;2023-05-20T06:17:28;12.70;99.90
64951;DHT22;51482;47.014;7.652;2023-05-20T06:19:54;12.70;99.90
64951;DHT22;51482;47.014;7.652;2023-05-20T06:22:20;12.70;99.90
64951;DHT22;51482;47.014;7.652;2023-05-20T06:24:45;12.80;99.90
64951;DHT22;51482;47.014;7.652;2023-05-20T06:27:11;12.80;99.90
64951;DHT22;51482;47.014;7.652;2023-05-20T06:29:36;12.80;99.90
64951;DHT22;51482;47.014;7.652;2023-05-20T06:32:02;12.80;99.90
64951;DHT22;51482;47.014;7.652;2023-05-20T06:34:27;12.90;99.90
64951;DHT22;51482;47.014;7.652;2023-05-20T06:36:53;12.90;99.90
64951;DHT22;51482;47.014;7.652;2023-05-20T06:39:20;13.00;99.90
64951;DHT22;51482;47.014;7.652;2023-05-20T06:41:46;13.50;99.90
64951;DHT22;51482;47.014;7.652;2023-05-20T06:44:11;13.10;99.90
64951;DHT22;51482;47.014;7.652;2023-05-20T06:46:37;13.10;99.90
64951;DHT22;51482;47.014;7.652;2023-05-20T06:49:02;13.20;99.90
64951;DHT22;51482;47.014;7.652;2023-05-20T06:51:28;13.30;99.90
64951;DHT22;51482;47.014;7.652;2023-05-20T06:53:53;13.30;99.90
64951;DHT22;51482;47.014;7.652;2023-05-20T06:56:19;13.30;99.90
64951;DHT22;51482;47.014;7.652;2023-05-20T06:58:46;13.20;99.90
64951;DHT22;51482;47.014;7.652;2023-05-20T07:01:11;13.30;99.90
64951;DHT22;51482;47.014;7.652;2023-05-20T07:03:37;13.40;99.90
64951;DHT22;51482;47.014;7.652;2023-05-20T07:06:02;13.40;99.90
64951;DHT22;51482;47.014;7.652;2023-05-20T07:08:28;13.40;99.90
64951;DHT22;51482;47.014;7.652;2023-05-20T07:10:57;13.40;99.90
64951;DHT22;51482;47.014;7.652;2023-05-20T07:13:22;13.40;99.90
64951;DHT22;51482;47.014;7.652;2023-05-20T07:15:48;13.40;99.90
64951;DHT22;51482;47.014;7.652;2023-05-20T07:18:14;13.70;99.90
64951;DHT22;51482;47.014;7.652;2023-05-20T07:20:40;13.50;99.90
64951;DHT22;51482;47.014;7.652;2023-05-20T07:23:06;13.50;99.90
64951;DHT22;51482;47.014;7.652;2023-05-20T07:25:31;13.90;99.90
64951;DHT22;51482;47.014;7.652;2023-05-20T07:27:57;13.90;99.90
64951;DHT22;51482;47.014;7.652;2023-05-20T07:30:24;13.70;99.90
64951;DHT22;51482;47.014;7.652;2023-05-20T07:32:49;13.70;99.90
64951;DHT22;51482;47.014;7.652;2023-05-20T07:35:15;13.70;99.90
64951;DHT22;51482;47.014;7.652;2023-05-20T07:37:40;13.70;99.90
64951;DHT22;51482;47.014;7.652;2023-05-20T07:40:08;13.80;99.90
64951;DHT22;51482;47.014;7.652;2023-05-20T07:42:34;13.90;99.90
64951;DHT22;51482;47.014;7.652;2023-05-20T07:44:59;13.90;99.90
64951;DHT22;51482;47.014;7.652;2023-05-20T07:47:25;14.10;99.90
64951;DHT22;51482;47.014;7.652;2023-05-20T07:49:51;14.60;99.90
64951;DHT22;51482;47.014;7.652;2023-05-20T07:52:16;14.00;99.90
64951;DHT22;51482;47.014;7.652;2023-05-20T07:54:42;14.10;99.90
64951;DHT22;51482;47.014;7.652;2023-05-20T07:57:07;14.80;99.90
64951;DHT22;51482;47.014;7.652;2023-05-20T07:59:33;14.60;99.90
64951;DHT22;51482;47.014;7.652;2023-05-20T08:01:58;14.60;99.90
64951;DHT22;51482;47.014;7.652;2023-05-20T08:04:24;14.50;99.90
64951;DHT22;51482;47.014;7.652;2023-05-20T08:06:51;14.90;99.90
64951;DHT22;51482;47.014;7.652;2023-05-20T08:09:17;15.20;99.90
64951;DHT22;51482;47.014;7.652;2023-05-20T08:11:43;15.30;99.90
64951;DHT22;51482;47.014;7.652;2023-05-20T08:14:09;14.70;99.90
64951;DHT22;51482;47.014;7.652;2023-05-20T08:16:35;15.00;99.90
64951;DHT22;51482;47.014;7.652;2023-05-20T08:19:01;15.10;99.90
64951;DHT22;51482;47.014;7.652;2023-05-20T08:21:27;15.10;99.90
64951;DHT22;51482;47.014;7.652;2023-05-20T08:23:53;15.10;99.90
64951;DHT22;51482;47.014;7.652;2023-05-20T08:26:18;14.80;99.90
64951;DHT22;51482;47.014;7.652;2023-05-20T08:28:44;14.80;99.90
64951;DHT22;51482;47.014;7.652;2023-05-20T08:31:09;14.80;99.90
64951;DHT22;51482;47.014;7.652;2023-05-20T08:33:36;14.90;99.90
64951;DHT22;51482;47.014;7.652;2023-05-20T08:36:01;15.40;99.90
64951;DHT22;51482;47.014;7.652;2023-05-20T08:38:27;15.00;99.90
64951;DHT22;51482;47.014;7.652;2023-05-20T08:40:54;15.70;99.90
64951;DHT22;51482;47.014;7.652;2023-05-20T08:43:21;15.00;99.90
64951;DHT22;51482;47.014;7.652;2023-05-20T08:45:48;15.00;99.90
64951;DHT22;51482;47.014;7.652;2023-05-20T08:48:15;15.10;99.90
64951;DHT22;51482;47.014;7.652;2023-05-20T08:50:42;15.10;99.90
64951;DHT22;51482;47.014;7.652;2023-05-20T08:53:08;15.30;99.90
64951;DHT22;51482;47.014;7.652;2023-05-20T08:55:41;15.50;99.90
64951;DHT22;51482;47.014;7.652;2023-05-20T08:58:08;15.50;99.90
64951;DHT22;51482;47.014;7.652;2023-05-20T09:00:34;15.60;99.90
64951;DHT22;51482;47.014;7.652;2023-05-20T09:03:00;15.70;99.90
64951;DHT22;51482;47.014;7.652;2023-05-20T09:05:26;15.90;99.90
64951;DHT22;51482;47.014;7.652;2023-05-20T09:07:51;16.30;99.90
64951;DHT22;51482;47.014;7.652;2023-05-20T09:10:19;15.60;99.90
64951;DHT22;51482;47.014;7.652;2023-05-20T09:12:45;15.60;99.90
64951;DHT22;51482;47.014;7.652;2023-05-20T09:15:10;15.90;99.90
64951;DHT22;51482;47.014;7.652;2023-05-20T09:17:37;15.50;99.90
64951;DHT22;51482;47.014;7.652;2023-05-20T09:20:08;16.00;99.90
64951;DHT22;51482;47.014;7.652;2023-05-20T09:22:33;15.70;99.90
64951;DHT22;51482;47.014;7.652;2023-05-20T09:24:59;15.70;99.90
64951;DHT22;51482;47.014;7.652;2023-05-20T09:27:25;15.50;99.90
64951;DHT22;51482;47.014;7.652;2023-05-20T09:29:50;15.80;99.90
64951;DHT22;51482;47.014;7.652;2023-05-20T09:32:17;15.70;99.90
64951;DHT22;51482;47.014;7.652;2023-05-20T09:34:46;15.60;99.90
64951;DHT22;51482;47.014;7.652;2023-05-20T09:37:13;16.40;99.90
64951;DHT22;51482;47.014;7.652;2023-05-20T09:39:48;15.90;99.90
64951;DHT22;51482;47.014;7.652;2023-05-20T09:42:29;16.00;99.90
64951;DHT22;51482;47.014;7.652;2023-05-20T09:44:57;16.20;99.90
64951;DHT22;51482;47.014;7.652;2023-05-20T09:47:23;15.80;99.90
64951;DHT22;51482;47.014;7.652;2023-05-20T09:49:51;16.10;99.90
64951;DHT22;51482;47.014;7.652;2023-05-20T09:52:17;15.90;99.90
64951;DHT22;51482;47.014;7.652;2023-05-20T09:54:43;15.90;99.90
64951;DHT22;51482;47.014;7.652;2023-05-20T09:57:09;15.80;99.90
64951;DHT22;51482;47.014;7.652;2023-05-20T09:59:36;15.90;99.90
64951;DHT22;51482;47.014;7.652;2023-05-20T10:02:04;16.00;99.90
64951;DHT22;51482;47.014;7.652;2023-05-20T10:04:31;15.80;99.90
64951;DHT22;51482;47.014;7.652;2023-05-20T10:07:14;15.90;99.90
64951;DHT22;51482;47.014;7.652;2023-05-20T10:12:52;16.40;99.90
64951;DHT22;51482;47.014;7.652;2023-05-20T10:15:33;16.50;99.90
64951;DHT22;51482;47.014;7.652;2023-05-20T10:20:49;16.20;99.90
64951;DHT22;51482;47.014;7.652;2023-05-20T10:23:29;16.20;99.90
64951;DHT22;51482;47.014;7.652;2023-05-20T10:25:56;16.30;99.90
64951;DHT22;51482;47.014;7.652;2023-05-20T10:28:33;16.40;99.90
64951;DHT22;51482;47.014;7.652;2023-05-20T10:31:00;16.50;99.90
64951;DHT22;51482;47.014;7.652;2023-05-20T10:33:27;16.80;99.90
64951;DHT22;51482;47.014;7.652;2023-05-20T10:35:53;17.10;99.90
64951;DHT22;51482;47.014;7.652;2023-05-20T10:38:19;16.20;99.90
64951;DHT22;51482;47.014;7.652;2023-05-20T10:40:46;16.20;99.90
64951;DHT22;51482;47.014;7.652;2023-05-20T10:43:24;16.10;99.90
64951;DHT22;51482;47.014;7.652;2023-05-20T10:45:54;16.20;99.90
64951;DHT22;51482;47.014;7.652;2023-05-20T10:48:40;16.40;99.90
64951;DHT22;51482;47.014;7.652;2023-05-20T10:51:12;16.20;99.90
64951;DHT22;51482;47.014;7.652;2023-05-20T10:53:40;16.80;99.90
64951;DHT22;51482;47.014;7.652;2023-05-20T10:56:16;16.80;99.90
64951;DHT22;51482;47.014;7.652;2023-05-20T10:58:43;16.70;99.90
64951;DHT22;51482;47.014;7.652;2023-05-20T11:01:09;16.80;99.90
64951;DHT22;51482;47.014;7.652;2023-05-20T11:03:35;17.20;99.90
64951;DHT22;51482;47.014;7.652;2023-05-20T11:06:01;16.80;99.90
64951;DHT22;51482;47.014;7.652;2023-05-20T11:08:34;16.70;99.90
64951;DHT22;51482;47.014;7.652;2023-05-20T11:11:00;16.70;99.90
64951;DHT22;51482;47.014;7.652;2023-05-20T11:13:25;16.60;99.90
64951;DHT22;51482;47.014;7.652;2023-05-20T11:15:51;17.00;99.90
64951;DHT22;51482;47.014;7.652;2023-05-20T11:18:17;16.50;99.90
64951;DHT22;51482;47.014;7.652;2023-05-20T11:20:42;16.60;99.90
64951;DHT22;51482;47.014;7.652;2023-05-20T11:23:12;16.70;99.90
64951;DHT22;51482;47.014;7.652;2023-05-20T11:25:37;16.80;99.90
64951;DHT22;51482;47.014;7.652;2023-05-20T11:28:03;16.80;99.90
64951;DHT22;51482;47.014;7.652;2023-05-20T11:30:29;16.90;99.90
64951;DHT22;51482;47.014;7.652;2023-05-20T11:35:26;16.70;99.90
64951;DHT22;51482;47.014;7.652;2023-05-20T11:38:04;16.00;99.90
64951;DHT22;51482;47.014;7.652;2023-05-20T11:40:31;16.40;99.90
64951;DHT22;51482;47.014;7.652;2023-05-20T11:42:59;16.30;99.90
64951;DHT22;51482;47.014;7.652;2023-05-20T11:45:26;16.30;99.90
64951;DHT22;51482;47.014;7.652;2023-05-20T11:48:02;16.30;99.90
64951;DHT22;51482;47.014;7.652;2023-05-20T11:50:33;16.40;99.90
64951;DHT22;51482;47.014;7.652;2023-05-20T11:53:02;16.50;99.90
64951;DHT22;51482;47.014;7.652;2023-05-20T11:55:28;17.10;99.90
64951;DHT22;51482;47.014;7.652;2023-05-20T11:57:57;16.60;99.90
64951;DHT22;51482;47.014;7.652;2023-05-20T12:00:23;16.70;99.90
64951;DHT22;51482;47.014;7.652;2023-05-20T12:02:49;16.70;99.90
64951;DHT22;51482;47.014;7.652;2023-05-20T12:05:14;16.70;99.90
64951;DHT22;51482;47.014;7.652;2023-05-20T12:07:40;16.60;99.90
64951;DHT22;51482;47.014;7.652;2023-05-20T12:10:06;16.50;99.90
64951;DHT22;51482;47.014;7.652;2023-05-20T12:12:32;16.60;99.90
64951;DHT22;51482;47.014;7.652;2023-05-20T12:14:58;16.50;99.90
64951;DHT22;51482;47.014;7.652;2023-05-20T12:17:23;16.50;99.90
64951;DHT22;51482;47.014;7.652;2023-05-20T12:19:49;16.50;99.90
64951;DHT22;51482;47.014;7.652;2023-05-20T12:22:14;17.10;99.90
64951;DHT22;51482;47.014;7.652;2023-05-20T12:24:40;16.60;99.90
64951;DHT22;51482;47.014;7.652;2023-05-20T12:27:06;16.50;99.90
64951;DHT22;51482;47.014;7.652;2023-05-20T12:29:32;16.60;99.90
64951;DHT22;51482;47.014;7.652;2023-05-20T12:31:58;16.50;99.90
64951;DHT22;51482;47.014;7.652;2023-05-20T12:34:23;16.50;99.90
64951;DHT22;51482;47.014;7.652;2023-05-20T12:36:49;16.50;99.90
64951;DHT22;51482;47.014;7.652;2023-05-20T12:39:15;16.60;99.90
64951;DHT22;51482;47.014;7.652;2023-05-20T12:41:42;16.80;99.90
64951;DHT22;51482;47.014;7.652;2023-05-20T12:44:08;16.70;99.90
64951;DHT22;51482;47.014;7.652;2023-05-20T12:46:35;16.60;99.90
64951;DHT22;51482;47.014;7.652;2023-05-20T12:49:01;16.70;99.90
64951;DHT22;51482;47.014;7.652;2023-05-20T12:51:26;16.70;99.90
64951;DHT22;51482;47.014;7.652;2023-05-20T12:53:52;16.70;99.90
64951;DHT22;51482;47.014;7.652;2023-05-20T12:56:17;16.70;99.90
64951;DHT22;51482;47.014;7.652;2023-05-20T12:58:43;16.70;99.90
64951;DHT22;51482;47.014;7.652;2023-05-20T13:01:09;16.50;99.90
64951;DHT22;51482;47.014;7.652;2023-05-20T13:03:35;16.20;99.90
64951;DHT22;51482;47.014;7.652;2023-05-20T13:06:00;16.50;99.90
64951;DHT22;51482;47.014;7.652;2023-05-20T13:08:26;16.50;99.90
64951;DHT22;51482;47.014;7.652;2023-05-20T13:10:52;16.60;99.90
64951;DHT22;51482;47.014;7.652;2023-05-20T13:13:17;16.80;99.90
64951;DHT22;51482;47.014;7.652;2023-05-20T13:15:46;16.80;99.90
64951;DHT22;51482;47.014;7.652;2023-05-20T13:18:13;16.90;99.90
64951;DHT22;51482;47.014;7.652;2023-05-20T13:20:43;17.00;99.90
64951;DHT22;51482;47.014;7.652;2023-05-20T13:23:08;16.80;99.90
64951;DHT22;51482;47.014;7.652;2023-05-20T13:25:34;17.10;99.90
64951;DHT22;51482;47.014;7.652;2023-05-20T13:28:01;17.10;99.90
64951;DHT22;51482;47.014;7.652;2023-05-20T13:30:26;17.00;99.90
64951;DHT22;51482;47.014;7.652;2023-05-20T13:32:52;17.00;99.90
64951;DHT22;51482;47.014;7.652;2023-05-20T13:35:18;17.10;99.90
64951;DHT22;51482;47.014;7.652;2023-05-20T13:37:44;17.00;99.90
64951;DHT22;51482;47.014;7.652;2023-05-20T13:40:10;17.00;99.90
64951;DHT22;51482;47.014;7.652;2023-05-20T13:42:36;17.10;99.90
64951;DHT22;51482;47.014;7.652;2023-05-20T13:45:01;16.80;99.90
64951;DHT22;51482;47.014;7.652;2023-05-20T13:47:27;17.40;99.90
64951;DHT22;51482;47.014;7.652;2023-05-20T13:49:52;17.30;99.90
64951;DHT22;51482;47.014;7.652;2023-05-20T13:52:18;17.30;99.90
64951;DHT22;51482;47.014;7.652;2023-05-20T13:54:43;17.40;99.90
64951;DHT22;51482;47.014;7.652;2023-05-20T13:57:11;17.40;99.90
64951;DHT22;51482;47.014;7.652;2023-05-20T13:59:37;17.50;99.90
64951;DHT22;51482;47.014;7.652;2023-05-20T14:02:03;17.70;99.90
64951;DHT22;51482;47.014;7.652;2023-05-20T14:04:28;17.50;99.90
64951;DHT22;51482;47.014;7.652;2023-05-20T14:06:55;17.40;99.90
64951;DHT22;51482;47.014;7.652;2023-05-20T14:09:20;17.40;99.90
64951;DHT22;51482;47.014;7.652;2023-05-20T14:11:46;17.50;99.90
64951;DHT22;51482;47.014;7.652;2023-05-20T14:14:11;17.50;99.90
64951;DHT22;51482;47.014;7.652;2023-05-20T14:16:37;17.40;99.90
64951;DHT22;51482;47.014;7.652;2023-05-20T14:19:04;17.30;99.90
64951;DHT22;51482;47.014;7.652;2023-05-20T14:21:29;17.50;99.90
64951;DHT22;51482;47.014;7.652;2023-05-20T14:23:57;17.10;99.90
64951;DHT22;51482;47.014;7.652;2023-05-20T14:26:23;17.00;99.90
64951;DHT22;51482;47.014;7.652;2023-05-20T14:28:48;17.00;99.90
64951;DHT22;51482;47.014;7.652;2023-05-20T14:31:14;16.90;99.90
64951;DHT22;51482;47.014;7.652;2023-05-20T14:33:39;17.00;99.90
64951;DHT22;51482;47.014;7.652;2023-05-20T14:36:05;16.90;99.90
64951;DHT22;51482;47.014;7.652;2023-05-20T14:38:30;17.00;99.90
64951;DHT22;51482;47.014;7.652;2023-05-20T14:40:56;16.60;99.90
64951;DHT22;51482;47.014;7.652;2023-05-20T14:43:21;17.50;99.90
64951;DHT22;51482;47.014;7.652;2023-05-20T14:45:47;16.70;99.90
64951;DHT22;51482;47.014;7.652;2023-05-20T14:48:13;17.10;99.90
64951;DHT22;51482;47.014;7.652;2023-05-20T14:50:38;17.20;99.90
64951;DHT22;51482;47.014;7.652;2023-05-20T14:53:04;17.20;99.90
64951;DHT22;51482;47.014;7.652;2023-05-20T14:55:30;17.20;99.90
64951;DHT22;51482;47.014;7.652;2023-05-20T14:57:55;17.20;99.90
64951;DHT22;51482;47.014;7.652;2023-05-20T15:00:21;17.10;99.90
64951;DHT22;51482;47.014;7.652;2023-05-20T15:02:46;17.10;99.90
64951;DHT22;51482;47.014;7.652;2023-05-20T15:05:12;17.00;99.90
64951;DHT22;51482;47.014;7.652;2023-05-20T15:07:38;16.90;99.90
64951;DHT22;51482;47.014;7.652;2023-05-20T15:10:04;16.60;99.90
64951;DHT22;51482;47.014;7.652;2023-05-20T15:12:29;16.80;99.90
64951;DHT22;51482;47.014;7.652;2023-05-20T15:14:55;17.00;99.90
64951;DHT22;51482;47.014;7.652;2023-05-20T15:17:21;16.60;99.90
64951;DHT22;51482;47.014;7.652;2023-05-20T15:19:46;16.60;99.90
64951;DHT22;51482;47.014;7.652;2023-05-20T15:22:12;17.10;99.90
64951;DHT22;51482;47.014;7.652;2023-05-20T15:24:37;16.50;99.90
64951;DHT22;51482;47.014;7.652;2023-05-20T15:27:03;16.60;99.90
64951;DHT22;51482;47.014;7.652;2023-05-20T15:29:28;16.80;99.90
64951;DHT22;51482;47.014;7.652;2023-05-20T15:31:54;16.80;99.90
64951;DHT22;51482;47.014;7.652;2023-05-20T15:34:19;17.10;99.90